sensor_id;sensor_type;location;lat;lon;timestamp;pressure;altitude;pressure_sealevel;temperature
8533;BMP280;4304;53.876;10.662;2024-02-28T00:00:33;101921.59;;;3.47
8533;BMP280;4304;53.876;10.662;2024-02-28T00:02:58;101902.75;;;3.48
8533;BMP280;4304;53.876;10.662;2024-02-28T00:05:24;101902.81;;;3.45
8533;BMP280;4304;53.876;10.662;2024-02-28T00:07:49;101923.34;;;3.46
8533;BMP280;4304;53.876;10.662;2024-02-28T00:10:15;101911.28;;;3.48
8533;BMP280;4304;53.876;10.662;2024-02-28T00:12:40;101911.31;;;3.47
8533;BMP280;4304;53.876;10.662;2024-02-28T00:15:06;101907.88;;;3.49
8533;BMP280;4304;53.876;10.662;2024-02-28T00:17:39;101920.72;;;3.49
8533;BMP280;4304;53.876;10.662;2024-02-28T00:20:06;101921.78;;;3.38
8533;BMP280;4304;53.876;10.662;2024-02-28T00:22:32;101931.00;;;3.48
8533;BMP280;4304;53.876;10.662;2024-02-28T00:24:57;101936.25;;;3.42
8533;BMP280;4304;53.876;10.662;2024-02-28T00:27:22;101937.09;;;3.44
8533;BMP280;4304;53.876;10.662;2024-02-28T00:29:48;101931.09;;;3.43
8533;BMP280;4304;53.876;10.662;2024-02-28T00:32:13;101937.94;;;3.44
8533;BMP280;4304;53.876;10.662;2024-02-28T00:34:38;101943.06;;;3.46
8533;BMP280;4304;53.876;10.662;2024-02-28T00:37:04;101942.94;;;3.50
8533;BMP280;4304;53.876;10.662;2024-02-28T00:39:29;101941.25;;;3.49
8533;BMP280;4304;53.876;10.662;2024-02-28T00:41:54;101939.53;;;3.50
8533;BMP280;4304;53.876;10.662;2024-02-28T00:44:20;101942.13;;;3.48
8533;BMP280;4304;53.876;10.662;2024-02-28T00:46:45;101939.44;;;3.56
8533;BMP280;4304;53.876;10.662;2024-02-28T00:49:10;101942.84;;;3.56
8533;BMP280;4304;53.876;10.662;2024-02-28T00:51:36;101929.34;;;3.45
8533;BMP280;4304;53.876;10.662;2024-02-28T00:54:02;101924.13;;;3.48
8533;BMP280;4304;53.876;10.662;2024-02-28T00:56:27;101913.13;;;3.43
8533;BMP280;4304;53.876;10.662;2024-02-28T00:58:53;101925.84;;;3.49
8533;BMP280;4304;53.876;10.662;2024-02-28T01:01:18;101919.06;;;3.45
8533;BMP280;4304;53.876;10.662;2024-02-28T01:03:44;101924.13;;;3.48
8533;BMP280;4304;53.876;10.662;2024-02-28T01:06:09;101915.50;;;3.52
8533;BMP280;4304;53.876;10.662;2024-02-28T01:08:34;101913.03;;;3.48
8533;BMP280;4304;53.876;10.662;2024-02-28T01:10:59;101927.59;;;3.49
8533;BMP280;4304;53.876;10.662;2024-02-28T01:13:25;101918.16;;;3.48
8533;BMP280;4304;53.876;10.662;2024-02-28T01:15:50;101913.06;;;3.46
8533;BMP280;4304;53.876;10.662;2024-02-28T01:18:15;101919.16;;;3.42
8533;BMP280;4304;53.876;10.662;2024-02-28T01:20:41;101910.50;;;3.45
8533;BMP280;4304;53.876;10.662;2024-02-28T01:23:06;101909.09;;;3.31
8533;BMP280;4304;53.876;10.662;2024-02-28T01:25:31;101925.25;;;3.36
8533;BMP280;4304;53.876;10.662;2024-02-28T01:27:57;101918.47;;;3.33
8533;BMP280;4304;53.876;10.662;2024-02-28T01:30:25;101914.22;;;3.31
8533;BMP280;4304;53.876;10.662;2024-02-28T01:32:51;101906.50;;;3.32
8533;BMP280;4304;53.876;10.662;2024-02-28T01:35:16;101904.78;;;3.33
8533;BMP280;4304;53.876;10.662;2024-02-28T01:37:41;101911.59;;;3.34
8533;BMP280;4304;53.876;10.662;2024-02-28T01:40:07;101902.22;;;3.33
8533;BMP280;4304;53.876;10.662;2024-02-28T01:42:33;101899.72;;;3.30
8533;BMP280;4304;53.876;10.662;2024-02-28T01:44:58;101893.06;;;3.20
8533;BMP280;4304;53.876;10.662;2024-02-28T01:47:24;101901.47;;;3.28
8533;BMP280;4304;53.876;10.662;2024-02-28T01:49:49;101886.97;;;3.24
8533;BMP280;4304;53.876;10.662;2024-02-28T01:52:16;101888.78;;;3.19
8533;BMP280;4304;53.876;10.662;2024-02-28T01:54:42;101885.50;;;3.11
8533;BMP280;4304;53.876;10.662;2024-02-28T01:57:09;101879.44;;;3.16
8533;BMP280;4304;53.876;10.662;2024-02-28T01:59:35;101881.91;;;3.19
8533;BMP280;4304;53.876;10.662;2024-02-28T02:02:00;101882.91;;;3.12
8533;BMP280;4304;53.876;10.662;2024-02-28T02:04:25;101887.09;;;3.18
8533;BMP280;4304;53.876;10.662;2024-02-28T02:06:51;101895.72;;;3.14
8533;BMP280;4304;53.876;10.662;2024-02-28T02:09:19;101886.16;;;3.22
8533;BMP280;4304;53.876;10.662;2024-02-28T02:11:44;101875.91;;;3.20
8533;BMP280;4304;53.876;10.662;2024-02-28T02:14:10;101900.56;;;3.29
8533;BMP280;4304;53.876;10.662;2024-02-28T02:16:36;101901.53;;;3.25
8533;BMP280;4304;53.876;10.662;2024-02-28T02:19:01;101890.34;;;3.26
8533;BMP280;4304;53.876;10.662;2024-02-28T02:21:30;101876.94;;;3.12
8533;BMP280;4304;53.876;10.662;2024-02-28T02:23:56;101877.81;;;3.11
8533;BMP280;4304;53.876;10.662;2024-02-28T02:26:21;101883.66;;;3.19
8533;BMP280;4304;53.876;10.662;2024-02-28T02:28:46;101882.84;;;3.17
8533;BMP280;4304;53.876;10.662;2024-02-28T02:31:13;101881.91;;;3.19
8533;BMP280;4304;53.876;10.662;2024-02-28T02:33:38;101879.31;;;3.21
8533;BMP280;4304;53.876;10.662;2024-02-28T02:36:04;101883.53;;;3.25
8533;BMP280;4304;53.876;10.662;2024-02-28T02:38:29;101888.63;;;3.28
8533;BMP280;4304;53.876;10.662;2024-02-28T02:40:55;101890.28;;;3.29
8533;BMP280;4304;53.876;10.662;2024-02-28T02:43:20;101889.50;;;3.25
8533;BMP280;4304;53.876;10.662;2024-02-28T02:45:45;101898.06;;;3.24
8533;BMP280;4304;53.876;10.662;2024-02-28T02:48:11;101887.88;;;3.21
8533;BMP280;4304;53.876;10.662;2024-02-28T02:50:36;101874.13;;;3.24
8533;BMP280;4304;53.876;10.662;2024-02-28T02:53:03;101881.72;;;3.30
8533;BMP280;4304;53.876;10.662;2024-02-28T02:55:28;101873.91;;;3.34
8533;BMP280;4304;53.876;10.662;2024-02-28T02:57:54;101892.03;;;3.28
8533;BMP280;4304;53.876;10.662;2024-02-28T03:00:20;101883.41;;;3.31
8533;BMP280;4304;53.876;10.662;2024-02-28T03:02:45;101885.97;;;3.31
8533;BMP280;4304;53.876;10.662;2024-02-28T03:05:11;101903.13;;;3.29
8533;BMP280;4304;53.876;10.662;2024-02-28T03:07:36;101905.66;;;3.32
8533;BMP280;4304;53.876;10.662;2024-02-28T03:10:02;101903.09;;;3.32
8533;BMP280;4304;53.876;10.662;2024-02-28T03:12:28;101902.22;;;3.33
8533;BMP280;4304;53.876;10.662;2024-02-28T03:14:53;101909.16;;;3.28
8533;BMP280;4304;53.876;10.662;2024-02-28T03:17:18;101907.31;;;3.34
8533;BMP280;4304;53.876;10.662;2024-02-28T03:19:44;101901.28;;;3.35
8533;BMP280;4304;53.876;10.662;2024-02-28T03:22:09;101892.84;;;3.30
8533;BMP280;4304;53.876;10.662;2024-02-28T03:24:34;101890.19;;;3.35
8533;BMP280;4304;53.876;10.662;2024-02-28T03:27:01;101894.47;;;3.34
8533;BMP280;4304;53.876;10.662;2024-02-28T03:29:27;101896.94;;;3.38
8533;BMP280;4304;53.876;10.662;2024-02-28T03:31:52;101902.94;;;3.39
8533;BMP280;4304;53.876;10.662;2024-02-28T03:34:17;101900.22;;;3.46
8533;BMP280;4304;53.876;10.662;2024-02-28T03:36:43;101900.38;;;3.39
8533;BMP280;4304;53.876;10.662;2024-02-28T03:39:08;101911.44;;;3.42
8533;BMP280;4304;53.876;10.662;2024-02-28T03:41:34;101914.03;;;3.41
8533;BMP280;4304;53.876;10.662;2024-02-28T03:44:00;101920.84;;;3.42
8533;BMP280;4304;53.876;10.662;2024-02-28T03:46:25;101923.56;;;3.36
8533;BMP280;4304;53.876;10.662;2024-02-28T03:48:50;101913.28;;;3.36
8533;BMP280;4304;53.876;10.662;2024-02-28T03:51:15;101911.53;;;3.38
8533;BMP280;4304;53.876;10.662;2024-02-28T03:53:41;101909.78;;;3.38
8533;BMP280;4304;53.876;10.662;2024-02-28T03:56:06;101922.72;;;3.34
8533;BMP280;4304;53.876;10.662;2024-02-28T03:58:31;101914.13;;;3.37
8533;BMP280;4304;53.876;10.662;2024-02-28T04:00:57;101903.81;;;3.38
8533;BMP280;4304;53.876;10.662;2024-02-28T04:03:22;101908.13;;;3.36
8533;BMP280;4304;53.876;10.662;2024-02-28T04:05:47;101915.88;;;3.35
8533;BMP280;4304;53.876;10.662;2024-02-28T04:08:13;101912.44;;;3.34
8533;BMP280;4304;53.876;10.662;2024-02-28T04:10:38;101926.81;;;3.44
8533;BMP280;4304;53.876;10.662;2024-02-28T04:13:03;101897.91;;;3.35
8533;BMP280;4304;53.876;10.662;2024-02-28T04:15:30;101907.22;;;3.38
8533;BMP280;4304;53.876;10.662;2024-02-28T04:17:55;101899.59;;;3.34
8533;BMP280;4304;53.876;10.662;2024-02-28T04:20:21;101906.38;;;3.38
8533;BMP280;4304;53.876;10.662;2024-02-28T04:22:46;101897.97;;;3.30
8533;BMP280;4304;53.876;10.662;2024-02-28T04:25:11;101895.56;;;3.23
8533;BMP280;4304;53.876;10.662;2024-02-28T04:27:37;101899.00;;;3.22
8533;BMP280;4304;53.876;10.662;2024-02-28T04:30:04;101902.31;;;3.27
8533;BMP280;4304;53.876;10.662;2024-02-28T04:32:29;101897.25;;;3.24
8533;BMP280;4304;53.876;10.662;2024-02-28T04:34:54;101904.13;;;3.23
8533;BMP280;4304;53.876;10.662;2024-02-28T04:37:20;101908.31;;;3.27
8533;BMP280;4304;53.876;10.662;2024-02-28T04:39:46;101910.72;;;3.36
8533;BMP280;4304;53.876;10.662;2024-02-28T04:42:12;101902.28;;;3.30
8533;BMP280;4304;53.876;10.662;2024-02-28T04:44:37;101909.22;;;3.25
8533;BMP280;4304;53.876;10.662;2024-02-28T04:47:03;101907.50;;;3.24
8533;BMP280;4304;53.876;10.662;2024-02-28T04:49:29;101908.34;;;3.24
8533;BMP280;4304;53.876;10.662;2024-02-28T04:51:54;101911.81;;;3.23
8533;BMP280;4304;53.876;10.662;2024-02-28T04:54:19;101905.88;;;3.21
8533;BMP280;4304;53.876;10.662;2024-02-28T04:56:45;101922.88;;;3.27
8533;BMP280;4304;53.876;10.662;2024-02-28T04:59:12;101917.69;;;3.30
8533;BMP280;4304;53.876;10.662;2024-02-28T05:01:40;101915.94;;;3.32
8533;BMP280;4304;53.876;10.662;2024-02-28T05:04:07;101919.38;;;3.29
8533;BMP280;4304;53.876;10.662;2024-02-28T05:06:33;101924.53;;;3.29
8533;BMP280;4304;53.876;10.662;2024-02-28T05:08:58;101921.16;;;3.26
8533;BMP280;4304;53.876;10.662;2024-02-28T05:11:24;101932.28;;;3.28
8533;BMP280;4304;53.876;10.662;2024-02-28T05:13:49;101937.38;;;3.29
8533;BMP280;4304;53.876;10.662;2024-02-28T05:16:15;101924.50;;;3.31
8533;BMP280;4304;53.876;10.662;2024-02-28T05:18:41;101924.50;;;3.31
8533;BMP280;4304;53.876;10.662;2024-02-28T05:21:06;101920.22;;;3.31
8533;BMP280;4304;53.876;10.662;2024-02-28T05:23:31;101925.38;;;3.31
8533;BMP280;4304;53.876;10.662;2024-02-28T05:25:57;101930.41;;;3.34
8533;BMP280;4304;53.876;10.662;2024-02-28T05:28:23;101930.47;;;3.33
8533;BMP280;4304;53.876;10.662;2024-02-28T05:30:48;101926.22;;;3.32
8533;BMP280;4304;53.876;10.662;2024-02-28T05:33:13;101933.09;;;3.30
8533;BMP280;4304;53.876;10.662;2024-02-28T05:35:39;101934.78;;;3.31
8533;BMP280;4304;53.876;10.662;2024-02-28T05:38:04;101932.28;;;3.28
8533;BMP280;4304;53.876;10.662;2024-02-28T05:40:29;101931.41;;;3.27
8533;BMP280;4304;53.876;10.662;2024-02-28T05:42:55;101938.25;;;3.28
8533;BMP280;4304;53.876;10.662;2024-02-28T05:45:20;101949.31;;;3.32
8533;BMP280;4304;53.876;10.662;2024-02-28T05:47:45;101936.59;;;3.24
8533;BMP280;4304;53.876;10.662;2024-02-28T05:50:11;101940.84;;;3.27
8533;BMP280;4304;53.876;10.662;2024-02-28T05:52:37;101939.13;;;3.27
8533;BMP280;4304;53.876;10.662;2024-02-28T05:55:03;101935.66;;;3.30
8533;BMP280;4304;53.876;10.662;2024-02-28T05:57:28;101945.91;;;3.31
8533;BMP280;4304;53.876;10.662;2024-02-28T05:59:54;101927.91;;;3.33
8533;BMP280;4304;53.876;10.662;2024-02-28T06:02:19;101939.94;;;3.29
8533;BMP280;4304;53.876;10.662;2024-02-28T06:04:44;101939.16;;;3.26
8533;BMP280;4304;53.876;10.662;2024-02-28T06:07:10;101936.66;;;3.23
8533;BMP280;4304;53.876;10.662;2024-02-28T06:09:35;101937.56;;;3.20
8533;BMP280;4304;53.876;10.662;2024-02-28T06:12:00;101946.13;;;3.19
8533;BMP280;4304;53.876;10.662;2024-02-28T06:14:27;101959.03;;;3.16
8533;BMP280;4304;53.876;10.662;2024-02-28T06:16:52;101953.97;;;3.12
8533;BMP280;4304;53.876;10.662;2024-02-28T06:19:17;101957.44;;;3.09
8533;BMP280;4304;53.876;10.662;2024-02-28T06:21:43;101950.69;;;3.04
8533;BMP280;4304;53.876;10.662;2024-02-28T06:24:08;101965.13;;;3.11
8533;BMP280;4304;53.876;10.662;2024-02-28T06:26:33;101966.91;;;3.07
8533;BMP280;4304;53.876;10.662;2024-02-28T06:28:59;101968.56;;;3.11
8533;BMP280;4304;53.876;10.662;2024-02-28T06:31:27;101968.56;;;3.10
8533;BMP280;4304;53.876;10.662;2024-02-28T06:33:55;101960.84;;;3.11
8533;BMP280;4304;53.876;10.662;2024-02-28T06:36:20;101965.13;;;3.11
8533;BMP280;4304;53.876;10.662;2024-02-28T06:38:45;101974.47;;;3.16
8533;BMP280;4304;53.876;10.662;2024-02-28T06:41:11;101970.19;;;3.15
8533;BMP280;4304;53.876;10.662;2024-02-28T06:43:37;101982.03;;;3.22
8533;BMP280;4304;53.876;10.662;2024-02-28T06:46:02;101978.44;;;3.31
8533;BMP280;4304;53.876;10.662;2024-02-28T06:48:28;101976.50;;;3.43
8533;BMP280;4304;53.876;10.662;2024-02-28T06:50:54;101980.59;;;3.53
8533;BMP280;4304;53.876;10.662;2024-02-28T06:53:19;101980.56;;;3.54
8533;BMP280;4304;53.876;10.662;2024-02-28T06:55:44;101993.28;;;3.60
8533;BMP280;4304;53.876;10.662;2024-02-28T06:58:11;101993.41;;;3.54
8533;BMP280;4304;53.876;10.662;2024-02-28T07:00:36;101996.97;;;3.49
8533;BMP280;4304;53.876;10.662;2024-02-28T07:03:01;101985.88;;;3.45
8533;BMP280;4304;53.876;10.662;2024-02-28T07:05:27;101996.22;;;3.42
8533;BMP280;4304;53.876;10.662;2024-02-28T07:07:52;101980.69;;;3.47
8533;BMP280;4304;53.876;10.662;2024-02-28T07:10:19;101992.63;;;3.51
8533;BMP280;4304;53.876;10.662;2024-02-28T07:12:44;101996.06;;;3.50
8533;BMP280;4304;53.876;10.662;2024-02-28T07:15:10;101995.00;;;3.60
8533;BMP280;4304;53.876;10.662;2024-02-28T07:17:35;102006.28;;;3.53
8533;BMP280;4304;53.876;10.662;2024-02-28T07:20:00;102009.69;;;3.53
8533;BMP280;4304;53.876;10.662;2024-02-28T07:22:26;102007.91;;;3.57
8533;BMP280;4304;53.876;10.662;2024-02-28T07:24:51;102009.81;;;3.49
8533;BMP280;4304;53.876;10.662;2024-02-28T07:27:16;102010.63;;;3.51
8533;BMP280;4304;53.876;10.662;2024-02-28T07:29:42;102020.78;;;3.55
8533;BMP280;4304;53.876;10.662;2024-02-28T07:32:07;102007.06;;;3.58
8533;BMP280;4304;53.876;10.662;2024-02-28T07:34:32;102016.34;;;3.63
8533;BMP280;4304;53.876;10.662;2024-02-28T07:36:59;102030.09;;;3.64
8533;BMP280;4304;53.876;10.662;2024-02-28T07:39:24;102027.44;;;3.65
8533;BMP280;4304;53.876;10.662;2024-02-28T07:41:50;102015.44;;;3.67
8533;BMP280;4304;53.876;10.662;2024-02-28T07:44:16;102015.56;;;3.61
8533;BMP280;4304;53.876;10.662;2024-02-28T07:46:41;102024.03;;;3.65
8533;BMP280;4304;53.876;10.662;2024-02-28T07:49:07;102019.56;;;3.76
8533;BMP280;4304;53.876;10.662;2024-02-28T07:51:32;102024.81;;;3.70
8533;BMP280;4304;53.876;10.662;2024-02-28T07:53:58;102030.66;;;3.78
8533;BMP280;4304;53.876;10.662;2024-02-28T07:56:23;102034.16;;;3.75
8533;BMP280;4304;53.876;10.662;2024-02-28T07:58:49;102040.06;;;3.79
8533;BMP280;4304;53.876;10.662;2024-02-28T08:01:14;102036.66;;;3.77
8533;BMP280;4304;53.876;10.662;2024-02-28T08:03:41;102029.75;;;3.80
8533;BMP280;4304;53.876;10.662;2024-02-28T08:06:07;102022.13;;;3.76
8533;BMP280;4304;53.876;10.662;2024-02-28T08:08:34;102027.84;;;3.88
8533;BMP280;4304;53.876;10.662;2024-02-28T08:10:59;102034.97;;;3.76
8533;BMP280;4304;53.876;10.662;2024-02-28T08:13:24;102029.69;;;3.81
8533;BMP280;4304;53.876;10.662;2024-02-28T08:15:53;102016.34;;;3.63
8533;BMP280;4304;53.876;10.662;2024-02-28T08:18:19;102012.88;;;3.67
8533;BMP280;4304;53.876;10.662;2024-02-28T08:20:45;102021.84;;;3.89
8533;BMP280;4304;53.876;10.662;2024-02-28T08:23:10;102027.66;;;3.98
8533;BMP280;4304;53.876;10.662;2024-02-28T08:25:35;102018.88;;;4.08
8533;BMP280;4304;53.876;10.662;2024-02-28T08:28:00;102024.53;;;4.23
8533;BMP280;4304;53.876;10.662;2024-02-28T08:30:26;102035.78;;;4.20
8533;BMP280;4304;53.876;10.662;2024-02-28T08:32:51;102032.81;;;4.37
8533;BMP280;4304;53.876;10.662;2024-02-28T08:35:18;102036.97;;;4.43
8533;BMP280;4304;53.876;10.662;2024-02-28T08:37:43;102024.94;;;4.43
8533;BMP280;4304;53.876;10.662;2024-02-28T08:40:10;102033.94;;;4.64
8533;BMP280;4304;53.876;10.662;2024-02-28T08:42:36;102040.41;;;4.79
8533;BMP280;4304;53.876;10.662;2024-02-28T08:45:01;102039.22;;;4.94
8533;BMP280;4304;53.876;10.662;2024-02-28T08:47:28;102056.13;;;5.04
8533;BMP280;4304;53.876;10.662;2024-02-28T08:49:53;102059.53;;;5.04
8533;BMP280;4304;53.876;10.662;2024-02-28T08:52:20;102055.88;;;5.14
8533;BMP280;4304;53.876;10.662;2024-02-28T08:54:45;102067.06;;;5.13
8533;BMP280;4304;53.876;10.662;2024-02-28T08:57:11;102067.88;;;5.15
8533;BMP280;4304;53.876;10.662;2024-02-28T08:59:36;102077.31;;;5.16
8533;BMP280;4304;53.876;10.662;2024-02-28T09:02:01;102073.19;;;5.07
8533;BMP280;4304;53.876;10.662;2024-02-28T09:04:27;102074.88;;;5.10
8533;BMP280;4304;53.876;10.662;2024-02-28T09:06:52;102077.19;;;5.20
8533;BMP280;4304;53.876;10.662;2024-02-28T09:09:20;102071.16;;;5.21
8533;BMP280;4304;53.876;10.662;2024-02-28T09:11:45;102076.66;;;5.41
8533;BMP280;4304;53.876;10.662;2024-02-28T09:14:10;102075.69;;;5.45
8533;BMP280;4304;53.876;10.662;2024-02-28T09:16:36;102069.94;;;5.67
8533;BMP280;4304;53.876;10.662;2024-02-28T09:19:02;102072.97;;;5.83
8533;BMP280;4304;53.876;10.662;2024-02-28T09:21:27;102069.25;;;5.93
8533;BMP280;4304;53.876;10.662;2024-02-28T09:23:53;102085.47;;;5.97
8533;BMP280;4304;53.876;10.662;2024-02-28T09:26:18;102075.03;;;6.02
8533;BMP280;4304;53.876;10.662;2024-02-28T09:28:43;102081.72;;;6.07
8533;BMP280;4304;53.876;10.662;2024-02-28T09:31:09;102087.47;;;6.18
8533;BMP280;4304;53.876;10.662;2024-02-28T09:33:34;102074.44;;;6.23
8533;BMP280;4304;53.876;10.662;2024-02-28T09:36:02;102084.59;;;6.27
8533;BMP280;4304;53.876;10.662;2024-02-28T09:38:27;102082.16;;;6.23
8533;BMP280;4304;53.876;10.662;2024-02-28T09:40:54;102076.78;;;6.30
8533;BMP280;4304;53.876;10.662;2024-02-28T09:43:23;102073.53;;;6.52
8533;BMP280;4304;53.876;10.662;2024-02-28T09:45:50;102086.34;;;6.55
8533;BMP280;4304;53.876;10.662;2024-02-28T09:48:16;102074.31;;;6.83
8533;BMP280;4304;53.876;10.662;2024-02-28T09:50:42;102087.50;;;7.01
8533;BMP280;4304;53.876;10.662;2024-02-28T09:53:07;102085.56;;;7.08
8533;BMP280;4304;53.876;10.662;2024-02-28T09:55:33;102081.97;;;7.12
8533;BMP280;4304;53.876;10.662;2024-02-28T09:57:58;102091.16;;;7.20
8533;BMP280;4304;53.876;10.662;2024-02-28T10:00:25;102087.19;;;7.10
8533;BMP280;4304;53.876;10.662;2024-02-28T10:02:53;102102.00;;;7.05
8533;BMP280;4304;53.876;10.662;2024-02-28T10:05:19;102096.66;;;6.84
8533;BMP280;4304;53.876;10.662;2024-02-28T10:07:45;102105.81;;;6.94
8533;BMP280;4304;53.876;10.662;2024-02-28T10:10:11;102098.13;;;6.91
8533;BMP280;4304;53.876;10.662;2024-02-28T10:12:40;102112.75;;;7.19
8533;BMP280;4304;53.876;10.662;2024-02-28T10:15:05;102107.03;;;7.35
8533;BMP280;4304;53.876;10.662;2024-02-28T10:17:31;102106.78;;;7.43
8533;BMP280;4304;53.876;10.662;2024-02-28T10:19:58;102106.13;;;7.62
8533;BMP280;4304;53.876;10.662;2024-02-28T10:22:25;102112.78;;;7.93
8533;BMP280;4304;53.876;10.662;2024-02-28T10:24:57;102121.41;;;8.41
8533;BMP280;4304;53.876;10.662;2024-02-28T10:27:22;102114.94;;;8.75
8533;BMP280;4304;53.876;10.662;2024-02-28T10:29:48;102127.53;;;9.05
8533;BMP280;4304;53.876;10.662;2024-02-28T10:32:13;102126.03;;;9.42
8533;BMP280;4304;53.876;10.662;2024-02-28T10:34:39;102139.81;;;9.42
8533;BMP280;4304;53.876;10.662;2024-02-28T10:37:05;102134.25;;;9.51
8533;BMP280;4304;53.876;10.662;2024-02-28T10:39:31;102149.31;;;9.43
8533;BMP280;4304;53.876;10.662;2024-02-28T10:41:59;102153.47;;;9.05
8533;BMP280;4304;53.876;10.662;2024-02-28T10:44:26;102141.59;;;8.99
8533;BMP280;4304;53.876;10.662;2024-02-28T10:46:53;102152.50;;;8.86
8533;BMP280;4304;53.876;10.662;2024-02-28T10:49:19;102144.66;;;9.09
8533;BMP280;4304;53.876;10.662;2024-02-28T10:51:45;102147.34;;;9.29
8533;BMP280;4304;53.876;10.662;2024-02-28T10:54:12;102146.41;;;9.08
8533;BMP280;4304;53.876;10.662;2024-02-28T10:56:39;102146.72;;;9.01
8533;BMP280;4304;53.876;10.662;2024-02-28T10:59:09;102149.72;;;8.91
8533;BMP280;4304;53.876;10.662;2024-02-28T11:01:39;102147.06;;;8.92
8533;BMP280;4304;53.876;10.662;2024-02-28T11:04:07;102148.09;;;8.88
8533;BMP280;4304;53.876;10.662;2024-02-28T11:06:33;102133.94;;;8.96
8533;BMP280;4304;53.876;10.662;2024-02-28T11:09:03;102138.56;;;8.89
8533;BMP280;4304;53.876;10.662;2024-02-28T11:11:31;102135.25;;;8.85
8533;BMP280;4304;53.876;10.662;2024-02-28T11:13:58;102145.84;;;8.79
8533;BMP280;4304;53.876;10.662;2024-02-28T11:16:31;102141.47;;;8.58
8533;BMP280;4304;53.876;10.662;2024-02-28T11:18:57;102134.69;;;8.54
8533;BMP280;4304;53.876;10.662;2024-02-28T11:21:23;102128.06;;;8.48
8533;BMP280;4304;53.876;10.662;2024-02-28T11:23:50;102136.63;;;8.50
8533;BMP280;4304;53.876;10.662;2024-02-28T11:26:15;102130.69;;;8.46
8533;BMP280;4304;53.876;10.662;2024-02-28T11:28:41;102120.41;;;8.45
8533;BMP280;4304;53.876;10.662;2024-02-28T11:31:06;102111.56;;;8.50
8533;BMP280;4304;53.876;10.662;2024-02-28T11:33:31;102111.78;;;8.67
8533;BMP280;4304;53.876;10.662;2024-02-28T11:35:59;102123.22;;;8.39
8533;BMP280;4304;53.876;10.662;2024-02-28T11:38:25;102125.00;;;8.37
8533;BMP280;4304;53.876;10.662;2024-02-28T11:40:50;102115.88;;;8.27
8533;BMP280;4304;53.876;10.662;2024-02-28T11:43:17;102120.50;;;8.42
8533;BMP280;4304;53.876;10.662;2024-02-28T11:45:43;102120.41;;;8.45
8533;BMP280;4304;53.876;10.662;2024-02-28T11:48:09;102116.69;;;8.29
8533;BMP280;4304;53.876;10.662;2024-02-28T11:50:37;102121.19;;;8.24
8533;BMP280;4304;53.876;10.662;2024-02-28T11:53:02;102116.34;;;8.38
8533;BMP280;4304;53.876;10.662;2024-02-28T11:55:30;102114.31;;;8.46
8533;BMP280;4304;53.876;10.662;2024-02-28T11:57:55;102110.66;;;8.51
8533;BMP280;4304;53.876;10.662;2024-02-28T12:00:20;102103.38;;;8.60
8533;BMP280;4304;53.876;10.662;2024-02-28T12:02:46;102098.44;;;8.76
8533;BMP280;4304;53.876;10.662;2024-02-28T12:05:12;102090.69;;;8.76
8533;BMP280;4304;53.876;10.662;2024-02-28T12:07:37;102097.50;;;8.78
8533;BMP280;4304;53.876;10.662;2024-02-28T12:10:03;102101.88;;;8.97
8533;BMP280;4304;53.876;10.662;2024-02-28T12:12:29;102095.97;;;8.94
8533;BMP280;4304;53.876;10.662;2024-02-28T12:14:58;102099.69;;;9.10
8533;BMP280;4304;53.876;10.662;2024-02-28T12:17:25;102107.06;;;8.97
8533;BMP280;4304;53.876;10.662;2024-02-28T12:19:51;102107.56;;;9.07
8533;BMP280;4304;53.876;10.662;2024-02-28T12:22:16;102102.50;;;9.04
8533;BMP280;4304;53.876;10.662;2024-02-28T12:24:41;102099.28;;;9.19
8533;BMP280;4304;53.876;10.662;2024-02-28T12:27:07;102099.59;;;9.33
8533;BMP280;4304;53.876;10.662;2024-02-28T12:29:32;102102.06;;;9.36
8533;BMP280;4304;53.876;10.662;2024-02-28T12:31:57;102092.41;;;9.39
8533;BMP280;4304;53.876;10.662;2024-02-28T12:34:23;102090.47;;;9.44
8533;BMP280;4304;53.876;10.662;2024-02-28T12:36:48;102089.47;;;9.46
8533;BMP280;4304;53.876;10.662;2024-02-28T12:39:13;102079.28;;;9.22
8533;BMP280;4304;53.876;10.662;2024-02-28T12:41:39;102099.84;;;9.05
8533;BMP280;4304;53.876;10.662;2024-02-28T12:44:07;102073.84;;;9.07
8533;BMP280;4304;53.876;10.662;2024-02-28T12:46:34;102069.88;;;9.20
8533;BMP280;4304;53.876;10.662;2024-02-28T12:48:59;102075.72;;;9.25
8533;BMP280;4304;53.876;10.662;2024-02-28T12:51:42;102073.94;;;9.25
8533;BMP280;4304;53.876;10.662;2024-02-28T12:54:09;102075.25;;;9.35
8533;BMP280;4304;53.876;10.662;2024-02-28T12:56:38;102070.81;;;9.38
8533;BMP280;4304;53.876;10.662;2024-02-28T12:59:04;102072.03;;;9.50
8533;BMP280;4304;53.876;10.662;2024-02-28T13:01:29;102076.78;;;9.60
8533;BMP280;4304;53.876;10.662;2024-02-28T13:03:56;102074.00;;;9.65
8533;BMP280;4304;53.876;10.662;2024-02-28T13:06:21;102075.38;;;9.53
8533;BMP280;4304;53.876;10.662;2024-02-28T13:08:47;102057.69;;;9.41
8533;BMP280;4304;53.876;10.662;2024-02-28T13:11:18;102058.03;;;9.54
8533;BMP280;4304;53.876;10.662;2024-02-28T13:13:43;102052.38;;;9.64
8533;BMP280;4304;53.876;10.662;2024-02-28T13:16:09;102063.22;;;9.74
8533;BMP280;4304;53.876;10.662;2024-02-28T13:18:35;102062.81;;;9.82
8533;BMP280;4304;53.876;10.662;2024-02-28T13:21:00;102061.69;;;9.70
8533;BMP280;4304;53.876;10.662;2024-02-28T13:23:25;102049.31;;;9.55
8533;BMP280;4304;53.876;10.662;2024-02-28T13:25:52;102047.00;;;9.49
8533;BMP280;4304;53.876;10.662;2024-02-28T13:28:17;102035.69;;;9.50
8533;BMP280;4304;53.876;10.662;2024-02-28T13:30:42;102032.91;;;9.54
8533;BMP280;4304;53.876;10.662;2024-02-28T13:33:08;102043.81;;;9.62
8533;BMP280;4304;53.876;10.662;2024-02-28T13:35:33;102039.22;;;9.49
8533;BMP280;4304;53.876;10.662;2024-02-28T13:37:58;102030.09;;;9.40
8533;BMP280;4304;53.876;10.662;2024-02-28T13:40:27;102026.56;;;9.41
8533;BMP280;4304;53.876;10.662;2024-02-28T13:42:52;102030.72;;;9.45
8533;BMP280;4304;53.876;10.662;2024-02-28T13:45:18;102023.91;;;9.43
8533;BMP280;4304;53.876;10.662;2024-02-28T13:47:43;102025.47;;;9.27
8533;BMP280;4304;53.876;10.662;2024-02-28T13:50:09;102024.31;;;9.34
8533;BMP280;4304;53.876;10.662;2024-02-28T13:52:35;102019.41;;;9.27
8533;BMP280;4304;53.876;10.662;2024-02-28T13:55:00;102013.84;;;9.16
8533;BMP280;4304;53.876;10.662;2024-02-28T13:57:25;102014.63;;;9.18
8533;BMP280;4304;53.876;10.662;2024-02-28T13:59:51;102022.72;;;9.10
8533;BMP280;4304;53.876;10.662;2024-02-28T14:02:20;102016.94;;;9.04
8533;BMP280;4304;53.876;10.662;2024-02-28T14:04:46;102016.28;;;8.99
8533;BMP280;4304;53.876;10.662;2024-02-28T14:07:15;102018.75;;;9.02
8533;BMP280;4304;53.876;10.662;2024-02-28T14:09:41;102024.25;;;8.94
8533;BMP280;4304;53.876;10.662;2024-02-28T14:12:07;102019.78;;;8.98